Terminal Aerodrome Forecast
Issued by NWS

Home | Current Version | Previous Version | Text Only | Print | Product List | Glossary On
Versions: 1 2 3 4 5 6 7 8 9 10 11 12 13 14 15 16 17 18 19 20 21 22
000
FTUS46 KSTO 192338
TAFSAC
TAF
KSAC 192338Z 2000/2024 18008KT P6SM VCSH SCT040 BKN100
     FM200800 16020G28KT P6SM -RA OVC015
     FM201900 18012G18KT 4SM -RA BR OVC030=

USA.gov is the U.S. government's official web portal to all federal, state and local government web resources and services.